createdAt,value
2022-09-26T00:01:43.687Z,12.60
2022-09-26T00:04:22.341Z,12.70
2022-09-26T00:06:51.936Z,12.70
2022-09-26T00:09:20.143Z,12.70
2022-09-26T00:11:48.519Z,12.60
2022-09-26T00:14:20.223Z,12.60
2022-09-26T00:16:50.117Z,12.60
2022-09-26T00:19:18.890Z,12.50
2022-09-26T00:21:46.947Z,12.60
2022-09-26T00:24:15.889Z,12.50
2022-09-26T00:26:44.478Z,12.50
2022-09-26T00:29:14.755Z,12.50
2022-09-26T00:31:47.419Z,12.50
2022-09-26T00:34:20.090Z,12.50
2022-09-26T00:36:48.197Z,12.50
2022-09-26T00:39:17.400Z,12.50
2022-09-26T00:41:46.422Z,12.50
2022-09-26T00:44:43.214Z,12.50
2022-09-26T00:47:36.422Z,12.50
2022-09-26T00:50:16.700Z,12.60
2022-09-26T00:52:53.806Z,12.50
2022-09-26T00:55:30.129Z,12.50
2022-09-26T00:58:05.444Z,12.50
2022-09-26T01:00:34.326Z,12.50
2022-09-26T01:03:03.218Z,12.40
2022-09-26T01:05:34.957Z,12.40
2022-09-26T01:08:05.149Z,12.40
2022-09-26T01:10:35.281Z,12.40
2022-09-26T01:13:04.196Z,12.30
2022-09-26T01:15:32.159Z,12.30
2022-09-26T01:18:00.239Z,12.30
2022-09-26T01:20:39.405Z,12.30
2022-09-26T01:23:53.102Z,12.30
2022-09-26T01:26:52.936Z,12.30
2022-09-26T01:30:01.654Z,12.30
2022-09-26T01:32:52.710Z,12.40
2022-09-26T01:35:45.764Z,12.40
2022-09-26T01:38:26.700Z,12.30
2022-09-26T01:41:12.678Z,12.40
2022-09-26T01:43:52.865Z,12.40
2022-09-26T01:46:30.908Z,12.40
2022-09-26T01:49:13.891Z,12.40
2022-09-26T01:51:51.355Z,12.40
2022-09-26T01:54:25.661Z,12.40
2022-09-26T01:56:58.732Z,12.40
2022-09-26T01:59:33.229Z,12.30
2022-09-26T02:02:09.283Z,12.30
2022-09-26T02:04:45.471Z,12.40
2022-09-26T02:07:19.675Z,12.30
2022-09-26T02:09:53.799Z,12.40
2022-09-26T02:12:32.802Z,12.40
2022-09-26T02:15:05.741Z,12.30
2022-09-26T02:17:39.282Z,12.40
2022-09-26T02:20:17.182Z,12.40
2022-09-26T02:22:45.874Z,12.40
2022-09-26T02:25:14.002Z,12.20
2022-09-26T02:27:41.955Z,12.30
2022-09-26T02:30:12.167Z,12.40
2022-09-26T02:32:40.408Z,12.40
2022-09-26T02:35:35.622Z,12.30
2022-09-26T02:38:05.576Z,12.30
2022-09-26T02:41:01.137Z,12.30
2022-09-26T02:44:13.535Z,12.30
2022-09-26T02:47:10.082Z,12.30
2022-09-26T02:50:08.868Z,12.20
2022-09-26T02:52:57.323Z,12.20
2022-09-26T02:55:38.284Z,12.20
2022-09-26T02:58:19.973Z,12.30
2022-09-26T03:01:02.464Z,12.20
2022-09-26T03:03:39.023Z,12.30
2022-09-26T03:06:13.110Z,12.30
2022-09-26T03:08:48.403Z,12.30
2022-09-26T03:11:23.749Z,12.30
2022-09-26T03:13:56.763Z,12.40
2022-09-26T03:16:29.630Z,12.30
2022-09-26T03:19:07.077Z,12.30
2022-09-26T03:21:37.160Z,12.30
2022-09-26T03:24:07.075Z,12.30
2022-09-26T03:26:37.137Z,12.30
2022-09-26T03:29:06.147Z,12.20
2022-09-26T03:31:34.664Z,12.30
2022-09-26T03:34:03.141Z,12.30
2022-09-26T03:36:32.163Z,12.30
2022-09-26T03:39:00.478Z,12.30
2022-09-26T03:41:29.832Z,12.30
2022-09-26T03:43:58.394Z,12.30
2022-09-26T03:46:26.515Z,12.30
2022-09-26T03:48:54.446Z,12.30
2022-09-26T03:51:22.909Z,12.30
2022-09-26T03:53:51.001Z,12.30
2022-09-26T03:56:21.727Z,12.30
2022-09-26T03:58:51.102Z,12.30
2022-09-26T04:01:22.705Z,12.20
2022-09-26T04:03:51.749Z,12.30
2022-09-26T04:06:21.234Z,12.20
2022-09-26T04:08:52.652Z,12.20
2022-09-26T04:11:24.754Z,12.20
2022-09-26T04:13:54.692Z,12.20
2022-09-26T04:16:24.376Z,12.20
2022-09-26T04:18:57.591Z,12.10
2022-09-26T04:21:27.240Z,12.20
2022-09-26T04:23:55.751Z,12.00
2022-09-26T04:26:24.923Z,12.00
2022-09-26T04:28:59.076Z,12.00
2022-09-26T04:31:28.590Z,11.90
2022-09-26T04:33:56.902Z,11.80
2022-09-26T04:36:25.120Z,11.70
2022-09-26T04:38:53.195Z,11.60
2022-09-26T04:41:23.125Z,11.50
2022-09-26T04:43:51.344Z,11.40
2022-09-26T04:46:30.189Z,11.30
2022-09-26T04:49:02.364Z,11.20
2022-09-26T04:51:32.594Z,11.20
2022-09-26T04:54:00.825Z,11.10
2022-09-26T04:56:31.602Z,11.10
2022-09-26T04:59:00.776Z,11.00
2022-09-26T05:01:30.268Z,11.00
2022-09-26T05:03:58.506Z,11.00
2022-09-26T05:06:26.618Z,11.00
2022-09-26T05:08:54.980Z,11.00
2022-09-26T05:11:22.938Z,11.00
2022-09-26T05:13:53.848Z,10.90
2022-09-26T05:16:22.696Z,10.90
2022-09-26T05:18:53.616Z,10.90
2022-09-26T05:21:21.704Z,10.80
2022-09-26T05:24:07.194Z,10.80
2022-09-26T05:26:43.579Z,10.80
2022-09-26T05:29:12.420Z,10.70
2022-09-26T05:31:41.077Z,10.70
2022-09-26T05:34:18.533Z,10.70
2022-09-26T05:36:48.236Z,10.70
2022-09-26T05:39:36.788Z,10.70
2022-09-26T05:42:09.217Z,10.70
2022-09-26T05:44:39.745Z,10.70
2022-09-26T05:47:08.549Z,10.70
2022-09-26T05:49:38.301Z,10.80
2022-09-26T05:52:06.469Z,10.80
2022-09-26T05:54:34.485Z,10.80
2022-09-26T05:57:02.430Z,10.90
2022-09-26T05:59:32.709Z,10.90
2022-09-26T06:02:00.780Z,10.90
2022-09-26T06:04:29.328Z,11.00
2022-09-26T06:06:59.242Z,11.10
2022-09-26T06:09:27.180Z,11.10
2022-09-26T06:11:55.122Z,11.10
2022-09-26T06:14:26.438Z,11.20
2022-09-26T06:16:54.453Z,11.30
2022-09-26T06:19:23.315Z,11.30
2022-09-26T06:21:51.976Z,11.40
2022-09-26T06:24:21.330Z,11.50
2022-09-26T06:26:49.450Z,11.50
2022-09-26T06:29:17.423Z,11.60
2022-09-26T06:31:46.202Z,11.70
2022-09-26T06:34:15.535Z,11.80
2022-09-26T06:36:44.116Z,11.80
2022-09-26T06:39:12.111Z,11.90
2022-09-26T06:41:41.615Z,12.00
2022-09-26T06:44:09.626Z,12.20
2022-09-26T06:46:37.696Z,12.30
2022-09-26T06:49:06.701Z,12.40
2022-09-26T06:51:34.758Z,12.40
2022-09-26T06:54:03.825Z,12.40
2022-09-26T06:56:31.840Z,12.50
2022-09-26T06:59:02.392Z,12.50
2022-09-26T07:01:30.595Z,12.60
2022-09-26T07:03:59.033Z,12.60
2022-09-26T07:06:27.142Z,12.70
2022-09-26T07:09:03.169Z,12.70
2022-09-26T07:11:46.286Z,12.80
2022-09-26T07:14:22.709Z,12.80
2022-09-26T07:16:51.925Z,13.00
2022-09-26T07:19:20.164Z,13.10
2022-09-26T07:21:49.060Z,13.10
2022-09-26T07:24:17.119Z,13.20
2022-09-26T07:26:45.334Z,13.20
2022-09-26T07:29:13.514Z,13.20
2022-09-26T07:31:42.995Z,13.30
2022-09-26T07:34:15.872Z,13.30
2022-09-26T07:36:47.398Z,13.40
2022-09-26T07:39:15.637Z,13.50
2022-09-26T07:41:46.587Z,13.60
2022-09-26T07:47:22.388Z,13.70
2022-09-26T07:50:08.151Z,13.80
2022-09-26T07:52:36.184Z,13.90
2022-09-26T07:55:04.986Z,14.00
2022-09-26T07:57:34.209Z,14.00
2022-09-26T08:00:03.330Z,14.10
2022-09-26T08:02:34.526Z,14.10
2022-09-26T08:05:04.853Z,14.20
2022-09-26T08:07:35.371Z,14.20
2022-09-26T08:10:05.513Z,14.20
2022-09-26T08:12:37.138Z,14.20
2022-09-26T08:15:06.429Z,14.30
2022-09-26T08:17:36.334Z,14.40
2022-09-26T08:20:05.529Z,14.50
2022-09-26T08:22:33.944Z,14.50
2022-09-26T08:25:01.930Z,14.60
2022-09-26T08:27:33.999Z,14.70
2022-09-26T08:30:04.217Z,14.70
2022-09-26T08:32:33.459Z,14.70
2022-09-26T08:35:02.824Z,14.80
2022-09-26T08:37:31.128Z,14.90
2022-09-26T08:40:00.703Z,14.90
2022-09-26T08:42:43.930Z,15.00
2022-09-26T08:45:52.782Z,15.00
2022-09-26T08:48:40.593Z,15.10
2022-09-26T08:51:28.239Z,15.10
2022-09-26T08:54:05.598Z,15.10
2022-09-26T08:56:40.196Z,15.20
2022-09-26T08:59:23.804Z,15.20
2022-09-26T09:01:57.679Z,15.40
2022-09-26T09:04:41.059Z,15.50
2022-09-26T09:07:22.610Z,15.60
2022-09-26T09:09:54.885Z,15.70
2022-09-26T09:12:38.156Z,15.70
2022-09-26T09:15:33.269Z,15.80
2022-09-26T09:18:21.389Z,15.80
2022-09-26T09:21:02.657Z,15.80
2022-09-26T09:23:56.843Z,15.80
2022-09-26T09:29:50.515Z,15.70
2022-09-26T09:32:24.815Z,15.80
2022-09-26T09:34:54.262Z,15.90
2022-09-26T09:37:26.903Z,15.80
2022-09-26T09:39:57.609Z,15.90
2022-09-26T09:42:37.372Z,16.00
2022-09-26T09:45:15.259Z,16.00
2022-09-26T09:47:43.548Z,16.10
2022-09-26T09:50:16.906Z,16.20
2022-09-26T09:53:05.731Z,16.10
2022-09-26T09:55:47.968Z,16.10
2022-09-26T09:58:39.266Z,16.00
2022-09-26T10:01:18.764Z,16.10
2022-09-26T10:04:01.291Z,16.20
2022-09-26T10:06:44.651Z,16.40
2022-09-26T10:09:38.370Z,16.40
2022-09-26T10:12:16.737Z,16.60
2022-09-26T10:14:52.953Z,16.70
2022-09-26T10:17:23.736Z,16.80
2022-09-26T10:19:52.509Z,16.80
2022-09-26T10:22:30.097Z,16.80
2022-09-26T10:25:05.813Z,16.80
2022-09-26T10:27:39.301Z,16.70
2022-09-26T10:30:26.805Z,16.50
2022-09-26T10:32:59.720Z,16.40
2022-09-26T10:35:41.136Z,16.40
2022-09-26T10:38:22.181Z,16.70
2022-09-26T10:40:55.171Z,17.00
2022-09-26T10:43:31.790Z,17.20
2022-09-26T10:46:12.921Z,17.20
2022-09-26T10:48:48.794Z,17.50
2022-09-26T10:51:28.695Z,17.50
2022-09-26T10:54:04.798Z,17.40
2022-09-26T10:56:39.889Z,17.40
2022-09-26T10:59:14.737Z,17.20
2022-09-26T11:01:47.451Z,17.10
2022-09-26T11:04:34.616Z,17.20
2022-09-26T11:07:02.938Z,17.30
2022-09-26T11:09:32.036Z,17.40
2022-09-26T11:12:00.268Z,17.60
2022-09-26T11:14:30.019Z,17.80
2022-09-26T11:16:59.606Z,17.80
2022-09-26T11:19:44.528Z,18.10
2022-09-26T11:22:26.038Z,18.20
2022-09-26T11:30:56.534Z,17.50
2022-09-26T11:33:25.391Z,17.70
2022-09-26T11:36:14.780Z,17.80
2022-09-26T11:38:48.600Z,17.80
2022-09-26T11:41:57.397Z,17.80
2022-09-26T11:44:48.180Z,17.70
2022-09-26T11:47:51.721Z,17.40
2022-09-26T11:50:40.666Z,17.20
2022-09-26T11:53:43.011Z,17.00
2022-09-26T11:56:55.107Z,16.90
2022-09-26T11:59:50.872Z,16.90
2022-09-26T12:02:50.042Z,16.70
2022-09-26T12:05:30.201Z,16.70
2022-09-26T12:08:21.584Z,16.70
2022-09-26T12:11:01.560Z,17.10
2022-09-26T12:13:47.133Z,17.40
2022-09-26T12:16:24.894Z,17.50
2022-09-26T12:19:06.237Z,17.60
2022-09-26T12:22:10.750Z,17.60
2022-09-26T12:24:53.016Z,17.10
2022-09-26T12:27:33.637Z,16.80
2022-09-26T12:30:10.561Z,16.80
2022-09-26T12:33:04.276Z,17.10
2022-09-26T12:35:52.338Z,17.50
2022-09-26T12:38:45.948Z,17.60
2022-09-26T12:41:41.479Z,17.80
2022-09-26T12:44:52.980Z,17.70
2022-09-26T12:47:50.855Z,17.80
2022-09-26T12:50:36.372Z,17.80
2022-09-26T12:53:41.841Z,17.80
2022-09-26T12:56:15.393Z,17.70
2022-09-26T12:59:13.137Z,17.40
2022-09-26T13:02:20.065Z,17.30
2022-09-26T13:05:22.587Z,16.90
2022-09-26T13:08:08.305Z,16.90
2022-09-26T13:10:58.954Z,16.80
2022-09-26T13:14:08.896Z,16.70
2022-09-26T13:16:56.060Z,16.70
2022-09-26T13:19:30.926Z,16.80
2022-09-26T13:22:03.705Z,16.70
2022-09-26T13:24:57.720Z,16.60
2022-09-26T13:27:36.236Z,16.40
2022-09-26T13:30:13.069Z,16.30
2022-09-26T13:32:56.993Z,16.20
2022-09-26T13:35:27.965Z,16.20
2022-09-26T13:38:20.377Z,16.40
2022-09-26T13:40:58.342Z,16.60
2022-09-26T13:43:49.020Z,17.10
2022-09-26T13:46:34.398Z,17.40
2022-09-26T13:49:27.872Z,17.50
2022-09-26T13:52:19.664Z,17.40
2022-09-26T13:55:00.425Z,17.20
2022-09-26T13:57:38.920Z,17.00
2022-09-26T14:00:48.708Z,16.90
2022-09-26T14:03:44.519Z,16.90
2022-09-26T14:06:33.405Z,17.00
2022-09-26T14:09:25.768Z,17.20
2022-09-26T14:12:53.541Z,17.30
2022-09-26T14:15:26.980Z,17.40
2022-09-26T14:18:16.358Z,17.40
2022-09-26T14:21:07.590Z,17.40
2022-09-26T14:23:43.113Z,17.50
2022-09-26T14:26:15.120Z,17.30
2022-09-26T14:28:52.887Z,17.20
2022-09-26T14:31:40.375Z,17.20
2022-09-26T14:34:23.470Z,17.10
2022-09-26T14:36:54.029Z,17.10
2022-09-26T14:39:33.458Z,16.80
2022-09-26T14:42:12.093Z,16.80
2022-09-26T14:44:49.647Z,16.60
2022-09-26T14:47:19.746Z,16.60
2022-09-26T14:50:00.346Z,16.50
2022-09-26T14:52:29.388Z,16.50
2022-09-26T14:55:02.058Z,16.60
2022-09-26T14:57:35.073Z,16.70
2022-09-26T15:00:35.832Z,16.80
2022-09-26T15:03:14.039Z,16.80
2022-09-26T15:05:42.972Z,16.50
2022-09-26T15:08:26.140Z,16.50
2022-09-26T15:10:58.342Z,16.50
2022-09-26T15:13:39.062Z,16.40
2022-09-26T15:16:24.799Z,16.40
2022-09-26T15:19:01.127Z,16.30
2022-09-26T15:21:37.733Z,16.20
2022-09-26T15:24:27.188Z,16.10
2022-09-26T15:26:59.408Z,15.90
2022-09-26T15:29:28.535Z,15.80
2022-09-26T15:31:57.660Z,15.70
2022-09-26T15:34:34.787Z,15.80
2022-09-26T15:37:17.033Z,15.70
2022-09-26T15:39:45.235Z,15.70
2022-09-26T15:42:45.127Z,15.60
2022-09-26T15:45:33.081Z,15.50
2022-09-26T15:48:06.792Z,15.40
2022-09-26T15:50:47.587Z,15.40
2022-09-26T15:53:25.470Z,15.20
2022-09-26T15:55:59.034Z,15.10
2022-09-26T15:58:36.246Z,15.00
2022-09-26T16:01:05.848Z,14.90
2022-09-26T16:03:55.008Z,14.80
2022-09-26T16:06:30.428Z,14.70
2022-09-26T16:09:09.435Z,14.70
2022-09-26T16:11:47.555Z,14.60
2022-09-26T16:14:30.087Z,14.60
2022-09-26T16:17:11.990Z,14.50
2022-09-26T16:19:47.514Z,14.40
2022-09-26T16:22:36.632Z,14.40
2022-09-26T16:25:35.414Z,14.30
2022-09-26T16:28:44.662Z,14.30
2022-09-26T16:31:39.449Z,14.20
2022-09-26T16:34:22.228Z,14.20
2022-09-26T16:36:51.914Z,14.10
2022-09-26T16:39:25.067Z,14.00
2022-09-26T16:42:02.782Z,13.90
2022-09-26T16:44:36.279Z,13.80
2022-09-26T16:47:09.030Z,13.80
2022-09-26T16:49:47.121Z,13.70
2022-09-26T16:52:28.590Z,13.60
2022-09-26T16:55:00.458Z,13.60
2022-09-26T16:57:33.222Z,13.70
2022-09-26T17:00:23.238Z,13.60
2022-09-26T17:02:51.477Z,13.60
2022-09-26T17:05:22.130Z,13.70
2022-09-26T17:07:51.051Z,13.60
2022-09-26T17:10:26.001Z,13.60
2022-09-26T17:12:54.757Z,13.60
2022-09-26T17:15:29.993Z,13.60
2022-09-26T17:18:01.085Z,13.60
2022-09-26T17:20:30.014Z,13.60
2022-09-26T17:23:04.689Z,13.50
2022-09-26T17:25:52.978Z,13.50
2022-09-26T17:28:32.266Z,13.50
2022-09-26T17:31:06.239Z,13.50
2022-09-26T17:33:39.213Z,13.50
2022-09-26T17:36:10.837Z,13.50
2022-09-26T17:38:41.189Z,13.50
2022-09-26T17:41:12.433Z,13.60
2022-09-26T17:43:40.592Z,13.50
2022-09-26T17:46:15.567Z,13.40
2022-09-26T17:48:45.134Z,13.40
2022-09-26T17:51:14.071Z,13.30
2022-09-26T17:53:50.438Z,13.30
2022-09-26T17:56:21.304Z,13.40
2022-09-26T17:58:51.855Z,13.50
2022-09-26T18:01:25.394Z,13.50
2022-09-26T18:04:00.932Z,13.50
2022-09-26T18:06:32.728Z,13.60
2022-09-26T18:09:05.682Z,13.60
2022-09-26T18:11:37.233Z,13.60
2022-09-26T18:14:11.297Z,13.60
2022-09-26T18:16:42.189Z,13.60
2022-09-26T18:19:10.852Z,13.70
2022-09-26T18:21:40.062Z,13.60
2022-09-26T18:24:19.687Z,13.60
2022-09-26T18:26:54.950Z,13.70
2022-09-26T18:29:30.886Z,13.70
2022-09-26T18:32:01.059Z,13.70
2022-09-26T18:34:29.179Z,13.60
2022-09-26T18:37:00.117Z,13.70
2022-09-26T18:39:28.808Z,13.60
2022-09-26T18:42:03.558Z,13.60
2022-09-26T18:44:35.023Z,13.60
2022-09-26T18:47:05.839Z,13.60
2022-09-26T18:49:38.019Z,13.50
2022-09-26T18:52:08.634Z,13.60
2022-09-26T18:54:37.144Z,13.60
2022-09-26T18:57:23.970Z,13.70
2022-09-26T18:59:52.056Z,13.70
2022-09-26T19:02:25.873Z,13.70
2022-09-26T19:04:58.802Z,13.60
2022-09-26T19:07:27.224Z,13.60
2022-09-26T19:09:55.347Z,13.60
2022-09-26T19:12:24.793Z,13.50
2022-09-26T19:14:52.836Z,13.60
2022-09-26T19:17:20.982Z,13.50
2022-09-26T19:19:49.142Z,13.50
2022-09-26T19:22:18.613Z,13.50
2022-09-26T19:24:51.606Z,13.40
2022-09-26T19:27:27.753Z,13.50
2022-09-26T19:30:01.739Z,13.40
2022-09-26T19:32:35.037Z,13.30
2022-09-26T19:35:08.056Z,13.40
2022-09-26T19:37:36.144Z,13.30
2022-09-26T19:40:13.496Z,13.20
2022-09-26T19:42:43.275Z,13.20
2022-09-26T19:45:13.192Z,13.20
2022-09-26T19:47:47.099Z,13.10
2022-09-26T19:50:18.979Z,13.10
2022-09-26T19:52:47.550Z,13.10
2022-09-26T19:55:18.901Z,13.00
2022-09-26T19:57:48.328Z,13.00
2022-09-26T20:00:19.181Z,13.00
2022-09-26T20:02:51.262Z,13.00
2022-09-26T20:05:23.071Z,13.00
2022-09-26T20:07:51.343Z,13.00
2022-09-26T20:10:25.192Z,13.00
2022-09-26T20:12:54.822Z,13.00
2022-09-26T20:15:22.945Z,13.10
2022-09-26T20:17:53.798Z,13.10
2022-09-26T20:20:25.394Z,13.20
2022-09-26T20:22:56.445Z,13.10
2022-09-26T20:25:28.894Z,13.10
2022-09-26T20:27:59.606Z,13.10
2022-09-26T20:30:45.904Z,13.10
2022-09-26T20:33:14.645Z,13.10
2022-09-26T20:35:47.430Z,13.10
2022-09-26T20:38:25.196Z,13.10
2022-09-26T20:41:10.570Z,13.00
2022-09-26T20:43:48.857Z,12.90
2022-09-26T20:46:20.432Z,12.90
2022-09-26T20:48:50.412Z,13.00
2022-09-26T20:51:24.534Z,13.00
2022-09-26T20:53:53.081Z,13.00
2022-09-26T20:56:21.924Z,13.00
2022-09-26T20:58:51.530Z,13.00
2022-09-26T21:01:22.325Z,13.00
2022-09-26T21:03:55.014Z,13.00
2022-09-26T21:06:28.694Z,13.00
2022-09-26T21:08:57.405Z,13.00
2022-09-26T21:11:25.836Z,13.00
2022-09-26T21:13:55.210Z,13.00
2022-09-26T21:16:23.612Z,13.00
2022-09-26T21:18:53.911Z,13.00
2022-09-26T21:21:26.739Z,12.90
2022-09-26T21:23:56.332Z,12.90
2022-09-26T21:26:27.362Z,12.90
2022-09-26T21:28:57.460Z,12.90
2022-09-26T21:31:29.526Z,12.90
2022-09-26T21:33:59.469Z,12.90
2022-09-26T21:36:35.194Z,12.90
2022-09-26T21:39:04.172Z,12.90
2022-09-26T21:41:32.444Z,12.80
2022-09-26T21:44:06.992Z,12.80
2022-09-26T21:46:35.170Z,12.80
2022-09-26T21:49:03.297Z,12.80
2022-09-26T21:51:32.160Z,12.70
2022-09-26T21:54:07.090Z,12.80
2022-09-26T21:56:48.702Z,12.90
2022-09-26T21:59:20.688Z,12.80
2022-09-26T22:01:48.909Z,12.80
2022-09-26T22:04:18.911Z,12.80
2022-09-26T22:06:46.978Z,12.80
2022-09-26T22:09:15.680Z,12.80
2022-09-26T22:11:43.904Z,12.70
2022-09-26T22:14:12.112Z,12.80
2022-09-26T22:16:41.803Z,12.80
2022-09-26T22:19:10.209Z,12.80
2022-09-26T22:21:38.342Z,12.80
2022-09-26T22:24:06.670Z,12.80
2022-09-26T22:26:34.694Z,12.80
2022-09-26T22:29:02.753Z,12.90
2022-09-26T22:31:30.842Z,12.90
2022-09-26T22:34:01.135Z,12.80
2022-09-26T22:36:29.373Z,12.80
2022-09-26T22:38:57.418Z,12.80
2022-09-26T22:41:25.495Z,12.70
2022-09-26T22:43:54.140Z,12.80
2022-09-26T22:46:22.204Z,12.80
2022-09-26T22:48:50.519Z,12.90
2022-09-26T22:51:20.009Z,12.90
2022-09-26T22:53:48.072Z,12.90
2022-09-26T22:56:18.074Z,13.00
2022-09-26T22:58:49.708Z,13.00
2022-09-26T23:01:22.276Z,12.90
2022-09-26T23:03:51.927Z,12.90
2022-09-26T23:06:22.418Z,12.90
2022-09-26T23:08:51.052Z,12.90
2022-09-26T23:11:19.572Z,12.90
2022-09-26T23:13:50.674Z,12.90
2022-09-26T23:16:21.274Z,12.80
2022-09-26T23:18:51.504Z,12.80
2022-09-26T23:21:23.502Z,12.90
2022-09-26T23:23:56.195Z,12.80
2022-09-26T23:26:26.677Z,12.90
2022-09-26T23:28:57.299Z,12.80
2022-09-26T23:31:26.849Z,12.70
2022-09-26T23:33:56.311Z,12.70
2022-09-26T23:36:26.080Z,12.70
2022-09-26T23:38:54.442Z,12.70
2022-09-26T23:41:22.484Z,12.70
2022-09-26T23:43:50.750Z,12.70
2022-09-26T23:46:19.257Z,12.70
2022-09-26T23:48:47.444Z,12.60
2022-09-26T23:51:15.533Z,12.50
2022-09-26T23:53:45.051Z,12.50
2022-09-26T23:56:15.080Z,12.50
2022-09-26T23:58:43.665Z,12.40
